Time;durP1;ratioP1;P1;durP2;ratioP2;P2;SDS_P1;SDS_P2;PMS_P1;PMS_P2;Temp;Humidity;BMP_temperature;BMP_pressure;BME280_temperature;BME280_humidity;BME280_pressure;Samples;Min_cycle;Max_cycle;Signal;HPM_P1;HPM_P2
2022/10/12 08:01:26;;;;;;;28.08;15.98;;;;;;;8.40;86.12;102186.69;5263426;28;20403;-73
2022/10/12 08:03:58;;;;;;;28.23;15.10;;;;;;;8.45;86.54;102189.59;5272517;28;20091;-71
2022/10/12 08:06:32;;;;;;;22.42;14.25;;;;;;;8.44;86.80;102190.69;5277561;28;20283;-72
2022/10/12 08:09:04;;;;;;;25.75;15.48;;;;;;;8.56;87.34;102191.47;5279372;28;20403;-69
2022/10/12 08:11:39;;;;;;;22.85;14.07;;;;;;;8.64;87.18;102195.78;5263883;28;20088;-68
2022/10/12 08:14:15;;;;;;;29.02;14.75;;;;;;;8.77;87.37;102198.31;5259698;28;20104;-69
2022/10/12 08:16:46;;;;;;;16.50;12.48;;;;;;;8.79;87.38;102196.09;5277983;28;20035;-71
2022/10/12 08:19:17;;;;;;;21.50;13.45;;;;;;;8.83;87.06;102186.25;5265581;28;20028;-72
2022/10/12 08:21:49;;;;;;;22.67;14.30;;;;;;;8.89;87.17;102187.19;5258799;28;20030;-72
2022/10/12 08:24:20;;;;;;;20.58;13.77;;;;;;;8.88;86.99;102185.50;5273320;28;20029;-72
2022/10/12 08:26:52;;;;;;;19.98;14.52;;;;;;;9.04;87.13;102179.19;5251793;28;20051;-72
2022/10/12 08:29:25;;;;;;;20.95;14.57;;;;;;;9.13;86.00;102180.47;5266099;28;20035;-74
2022/10/12 08:31:57;;;;;;;23.48;14.98;;;;;;;9.24;86.16;102186.22;5249796;28;20033;-72
2022/10/12 08:34:29;;;;;;;20.13;15.75;;;;;;;9.28;85.48;102176.31;5267394;28;20030;-71
2022/10/12 08:37:01;;;;;;;24.88;17.02;;;;;;;9.41;84.86;102175.16;5264921;28;20025;-72
2022/10/12 08:39:32;;;;;;;21.58;16.60;;;;;;;9.48;84.59;102171.13;5268852;28;20116;-72
2022/10/12 08:42:06;;;;;;;18.92;15.63;;;;;;;9.58;84.45;102170.47;5265611;28;20032;-72
2022/10/12 08:45:02;;;;;;;22.13;14.85;;;;;;;9.67;84.29;102176.47;5266000;28;20108;-72
2022/10/12 08:47:39;;;;;;;20.80;14.73;;;;;;;9.72;83.20;102182.09;5262763;28;20442;-73
2022/10/12 08:50:17;;;;;;;23.77;15.88;;;;;;;9.78;83.18;102181.06;5268634;28;20029;-73
2022/10/12 08:53:03;;;;;;;21.98;14.80;;;;;;;9.84;82.58;102174.50;5257372;28;20027;-73
2022/10/12 08:55:42;;;;;;;26.08;13.73;;;;;;;9.89;82.65;102169.03;5260936;28;20063;-73
2022/10/12 08:58:30;;;;;;;17.85;12.30;;;;;;;9.95;82.16;102170.81;5261902;28;20024;-72
2022/10/12 09:01:13;;;;;;;22.35;13.60;;;;;;;10.02;82.33;102182.56;5250817;28;20132;-73
2022/10/12 09:03:47;;;;;;;20.33;13.20;;;;;;;10.13;82.77;102185.50;5258893;28;20048;-71
2022/10/12 09:06:23;;;;;;;17.35;13.80;;;;;;;10.14;83.00;102184.41;5273765;28;20055;-70
2022/10/12 09:09:13;;;;;;;17.65;13.98;;;;;;;10.33;82.71;102187.75;5261820;28;20028;-69
2022/10/12 09:12:10;;;;;;;18.48;13.10;;;;;;;10.42;82.80;102192.59;5253786;28;20053;-69
2022/10/12 09:14:44;;;;;;;18.15;13.82;;;;;;;10.36;80.42;102195.59;5239356;28;20115;-68
2022/10/12 09:17:28;;;;;;;17.58;13.73;;;;;;;10.44;80.20;102201.50;5245481;28;20464;-68
2022/10/12 09:20:28;;;;;;;21.92;13.02;;;;;;;10.48;80.18;102203.78;5248976;28;20028;-68
2022/10/12 09:23:15;;;;;;;22.90;13.52;;;;;;;10.53;79.60;102203.84;5245294;28;20057;-69
2022/10/12 09:25:46;;;;;;;20.38;14.68;;;;;;;10.55;79.80;102198.88;5250016;28;20499;-68
2022/10/12 09:28:34;;;;;;;14.88;11.27;;;;;;;10.95;82.83;102189.41;5263383;28;20025;-68
2022/10/12 09:31:08;;;;;;;18.95;10.93;;;;;;;11.18;84.18;102183.56;5261952;28;20390;-68
2022/10/12 09:34:00;;;;;;;13.35;10.38;;;;;;;11.39;84.97;102189.31;5244870;28;20029;-68
2022/10/12 09:36:35;;;;;;;25.42;14.27;;;;;;;11.06;78.60;102186.47;5225912;28;20037;-68
2022/10/12 09:39:15;;;;;;;25.17;15.13;;;;;;;11.31;81.99;102183.13;5242508;28;20457;-69
2022/10/12 09:41:47;;;;;;;22.17;14.73;;;;;;;11.22;78.61;102192.19;5250530;28;20040;-68
2022/10/12 09:44:35;;;;;;;23.35;14.60;;;;;;;11.34;79.29;102192.06;5241008;28;20033;-68
2022/10/12 09:47:27;;;;;;;23.05;14.93;;;;;;;11.29;77.46;102185.31;5247747;28;20025;-68
2022/10/12 09:50:01;;;;;;;18.42;12.50;;;;;;;11.80;82.52;102187.75;5244161;28;20547;-68
2022/10/12 09:52:35;;;;;;;24.90;16.35;;;;;;;11.48;77.60;102193.31;5238399;28;20033;-68
2022/10/12 09:55:22;;;;;;;24.42;18.58;;;;;;;11.50;77.17;102179.97;5245652;28;20039;-68
2022/10/12 09:57:56;;;;;;;18.98;14.35;;;;;;;11.62;77.26;102177.03;5241316;28;20448;-68
2022/10/12 10:00:31;;;;;;;20.73;13.57;;;;;;;11.73;76.51;102176.88;5250199;28;20053;-71
2022/10/12 10:03:02;;;;;;;22.73;16.92;;;;;;;11.73;76.11;102173.22;5246870;28;20354;-71
2022/10/12 10:05:37;;;;;;;20.40;13.00;;;;;;;11.79;75.68;102161.06;5251797;28;20178;-71
2022/10/12 10:08:19;;;;;;;23.40;15.50;;;;;;;11.80;75.37;102156.34;5262667;28;20029;-69
2022/10/12 10:10:52;;;;;;;20.10;14.02;;;;;;;11.84;74.92;102146.38;5237331;28;20021;-71
2022/10/12 10:13:29;;;;;;;25.85;15.05;;;;;;;11.89;73.75;102154.78;5238980;28;20444;-71
2022/10/12 10:16:08;;;;;;;22.90;13.98;;;;;;;11.90;74.65;102153.66;5253150;28;20390;-72
2022/10/12 10:19:15;;;;;;;22.30;13.35;;;;;;;12.05;74.23;102147.38;5249017;28;20083;-72
2022/10/12 10:21:46;;;;;;;19.70;15.82;;;;;;;12.12;73.74;102171.06;5238815;28;20040;-72
2022/10/12 10:24:24;;;;;;;19.45;14.60;;;;;;;12.29;73.49;102158.94;5240098;28;20025;-72
2022/10/12 10:27:03;;;;;;;18.55;11.35;;;;;;;12.32;74.24;102158.38;5244427;28;20034;-69
2022/10/12 10:29:38;;;;;;;16.80;10.88;;;;;;;12.26;72.05;102159.47;5246583;28;20387;-68
2022/10/12 10:32:22;;;;;;;17.77;11.88;;;;;;;12.53;73.84;102171.31;5260442;28;20055;-70
2022/10/12 10:35:12;;;;;;;19.40;9.20;;;;;;;12.62;73.12;102163.28;5231410;28;20104;-70
2022/10/12 10:37:55;;;;;;;13.98;8.98;;;;;;;12.74;73.31;102161.09;5251729;28;20022;-70
2022/10/12 10:40:29;;;;;;;14.52;9.05;;;;;;;12.87;72.69;102158.91;5235765;28;20349;-70
2022/10/12 10:43:14;;;;;;;17.23;9.23;;;;;;;12.77;69.80;102154.16;5235541;28;20029;-70
2022/10/12 10:45:51;;;;;;;14.80;8.27;;;;;;;12.81;69.04;102146.94;5233840;28;20094;-69
2022/10/12 10:48:28;;;;;;;13.93;8.23;;;;;;;12.80;69.75;102137.72;5258948;28;20120;-68
2022/10/12 10:51:05;;;;;;;10.30;7.22;;;;;;;12.88;70.73;102138.31;5233403;28;20425;-69
2022/10/12 10:53:47;;;;;;;12.85;7.78;;;;;;;13.09;72.33;102137.28;5243279;28;20467;-69
2022/10/12 10:56:28;;;;;;;13.05;7.40;;;;;;;13.00;69.94;102144.47;5261027;28;20033;-69
2022/10/12 10:59:13;;;;;;;12.15;6.95;;;;;;;13.04;67.91;102140.88;5261584;28;20044;-71
2022/10/12 11:01:54;;;;;;;14.38;8.75;;;;;;;13.09;68.12;102126.13;5244211;28;20034;-71
2022/10/12 11:04:31;;;;;;;12.05;8.15;;;;;;;13.13;67.48;102130.00;5232337;28;20040;-71
2022/10/12 11:07:16;;;;;;;9.43;7.18;;;;;;;13.24;66.23;102114.16;5255270;28;20036;-71
2022/10/12 11:09:54;;;;;;;16.05;7.00;;;;;;;13.32;65.73;102116.44;5236637;28;20028;-71
2022/10/12 11:12:31;;;;;;;10.88;7.22;;;;;;;13.34;65.70;102113.34;5244028;28;20044;-72
2022/10/12 11:15:39;;;;;;;13.18;6.93;;;;;;;13.41;64.90;102109.19;5253231;28;20036;-71
2022/10/12 11:18:20;;;;;;;14.00;6.68;;;;;;;13.56;65.07;102113.09;5239496;28;20408;-71
2022/10/12 11:21:03;;;;;;;9.05;5.80;;;;;;;13.76;70.46;102096.34;5248520;28;20455;-71
2022/10/12 11:23:47;;;;;;;12.10;5.88;;;;;;;13.76;63.68;102098.31;5233747;28;20037;-70
2022/10/12 11:26:21;;;;;;;11.98;6.30;;;;;;;13.75;62.61;102089.09;5253097;28;20128;-71
2022/10/12 11:28:56;;;;;;;10.73;6.00;;;;;;;13.91;64.51;102079.59;5240782;28;20112;-72
2022/10/12 11:31:38;;;;;;;14.02;6.10;;;;;;;14.07;63.28;102085.13;5240754;28;20039;-71
2022/10/12 11:34:17;;;;;;;12.85;5.65;;;;;;;14.14;62.21;102075.34;5236307;28;20029;-70
2022/10/12 11:36:51;;;;;;;12.05;6.20;;;;;;;14.23;64.92;102072.78;5241756;28;20033;-70
2022/10/12 11:39:31;;;;;;;9.27;5.70;;;;;;;14.20;61.44;102069.75;5238375;28;20125;-70
2022/10/12 11:42:11;;;;;;;11.90;5.88;;;;;;;14.28;61.76;102060.78;5258961;28;20032;-70
2022/10/12 11:44:46;;;;;;;8.38;5.32;;;;;;;14.33;61.63;102049.59;5259569;28;20480;-70
2022/10/12 11:47:29;;;;;;;10.23;6.30;;;;;;;14.40;61.60;102054.88;5246225;28;20100;-69
2022/10/12 11:50:40;;;;;;;9.35;6.20;;;;;;;14.32;61.64;102053.53;5254808;28;20417;-69
2022/10/12 11:53:35;;;;;;;11.70;6.35;;;;;;;14.26;61.41;102049.91;5225870;28;20045;-68
2022/10/12 11:56:15;;;;;;;10.25;6.18;;;;;;;14.23;60.91;102064.44;5254244;28;20091;-69
2022/10/12 11:58:50;;;;;;;10.45;5.85;;;;;;;14.25;61.45;102059.41;5230454;28;20079;-68
2022/10/12 12:01:35;;;;;;;12.35;6.20;;;;;;;14.25;61.49;102064.16;5236853;28;20488;-68
2022/10/12 12:04:15;;;;;;;12.63;6.47;;;;;;;14.29;61.98;102062.44;5239132;28;20337;-68
2022/10/12 12:06:48;;;;;;;10.80;6.13;;;;;;;14.31;61.69;102055.47;5243663;28;20908;-69
2022/10/12 12:09:19;;;;;;;11.70;6.25;;;;;;;14.28;60.70;102053.25;5238537;28;20128;-70
2022/10/12 12:12:10;;;;;;;11.52;5.20;;;;;;;14.33;60.68;102056.00;5237477;28;20116;-69
2022/10/12 12:14:47;;;;;;;14.27;7.03;;;;;;;14.34;61.57;102056.84;5239128;28;20032;-71
2022/10/12 12:17:18;;;;;;;16.63;6.63;;;;;;;14.41;60.62;102056.53;5243188;28;20067;-69
2022/10/12 12:19:51;;;;;;;19.60;11.00;;;;;;;14.48;60.96;102055.13;5246796;28;20053;-70
2022/10/12 12:22:53;;;;;;;10.25;6.60;;;;;;;14.50;60.21;102049.25;5240289;28;20025;-70
2022/10/12 12:25:32;;;;;;;15.50;7.28;;;;;;;14.54;59.76;102044.78;5244232;28;20033;-70
2022/10/12 12:28:23;;;;;;;8.30;4.97;;;;;;;14.59;59.89;102033.59;5231479;28;20464;-69
2022/10/12 12:31:10;;;;;;;9.88;4.65;;;;;;;14.59;59.87;102038.34;5229700;28;20035;-69
2022/10/12 12:33:47;;;;;;;11.63;6.05;;;;;;;14.57;58.96;102033.03;5245036;28;20063;-68
2022/10/12 12:36:34;;;;;;;9.75;5.75;;;;;;;14.52;58.65;102028.31;5246961;28;20077;-67
2022/10/12 12:39:19;;;;;;;11.57;4.40;;;;;;;14.61;58.52;102034.13;5244242;28;20103;-69
2022/10/12 12:41:57;;;;;;;9.97;5.60;;;;;;;14.62;58.34;102030.22;5232094;28;20495;-69
2022/10/12 12:45:18;;;;;;;11.52;5.60;;;;;;;14.67;58.69;102024.59;5230591;28;20415;-69
2022/10/12 12:47:49;;;;;;;5.88;4.30;;;;;;;14.77;62.54;102018.13;5241490;28;20033;-69
2022/10/12 12:50:38;;;;;;;9.45;7.00;;;;;;;14.68;58.56;102023.50;5242393;28;20441;-69
2022/10/12 12:53:18;;;;;;;7.63;5.03;;;;;;;14.70;58.33;102010.09;5236523;28;20032;-68
2022/10/12 12:56:03;;;;;;;13.20;6.60;;;;;;;14.76;59.60;102013.66;5237290;28;20033;-69
2022/10/12 12:59:08;;;;;;;18.25;9.13;;;;;;;14.76;58.83;102010.88;5258014;28;20029;-67
2022/10/12 13:02:16;;;;;;;11.07;5.47;;;;;;;14.77;59.91;102004.97;5238302;28;20041;-67
2022/10/12 13:05:18;;;;;;;9.15;4.10;;;;;;;14.78;59.45;101998.28;5249988;28;20158;-67
2022/10/12 13:08:11;;;;;;;8.80;5.18;;;;;;;14.96;60.12;102004.31;5246177;28;20071;-68
2022/10/12 13:10:57;;;;;;;8.05;4.00;;;;;;;15.02;58.40;102002.31;5239117;28;20037;-66
2022/10/12 13:14:17;;;;;;;10.00;4.72;;;;;;;15.09;58.63;102000.84;5260739;28;20045;-66
2022/10/12 13:16:57;;;;;;;8.82;3.88;;;;;;;15.11;58.54;102001.41;5257381;28;20100;-66
2022/10/12 13:19:32;;;;;;;10.90;4.97;;;;;;;15.06;58.46;101995.84;5238748;28;20029;-66
2022/10/12 13:22:26;;;;;;;9.70;5.25;;;;;;;15.09;59.34;102002.81;5237822;28;20026;-68
2022/10/12 13:25:06;;;;;;;9.45;4.18;;;;;;;15.02;59.05;101997.56;5247326;28;20021;-67
2022/10/12 13:27:52;;;;;;;12.93;5.85;;;;;;;15.10;59.46;101996.09;5261816;28;20074;-67
2022/10/12 13:30:46;;;;;;;9.43;6.20;;;;;;;15.12;59.66;101994.66;5248421;28;20453;-68
2022/10/12 13:33:26;;;;;;;9.18;5.00;;;;;;;15.23;61.73;101999.03;5249763;28;20035;-68
2022/10/12 13:36:04;;;;;;;8.20;4.30;;;;;;;15.06;58.83;101998.66;5248795;28;20075;-68
2022/10/12 13:38:39;;;;;;;7.07;4.30;;;;;;;15.15;60.53;101991.28;5236961;28;20029;-69
2022/10/12 13:41:15;;;;;;;15.60;3.60;;;;;;;15.03;59.48;101990.00;5248310;28;20106;-68
2022/10/12 13:44:05;;;;;;;10.40;4.38;;;;;;;15.01;59.97;101995.91;5252100;28;20028;-68
2022/10/12 13:46:46;;;;;;;11.73;4.15;;;;;;;14.92;59.95;101992.03;5246374;28;20033;-68
2022/10/12 13:49:25;;;;;;;7.65;4.60;;;;;;;14.94;61.46;101984.22;5240988;28;20082;-68
2022/10/12 13:52:00;;;;;;;8.38;3.97;;;;;;;14.95;60.12;101983.06;5246584;28;20025;-68
2022/10/12 13:54:43;;;;;;;4.57;4.05;;;;;;;15.03;62.56;101973.22;5249142;28;20084;-68
2022/10/12 13:57:42;;;;;;;6.70;3.65;;;;;;;15.07;62.68;101968.75;5253817;28;20448;-69
2022/10/12 14:00:14;;;;;;;7.30;3.75;;;;;;;14.99;60.83;101964.63;5246768;28;20052;-69
2022/10/12 14:02:57;;;;;;;8.75;3.53;;;;;;;14.96;60.58;101954.88;5240910;28;20021;-69
2022/10/12 14:05:31;;;;;;;8.82;4.40;;;;;;;15.01;59.96;101965.16;5238755;28;20073;-69
2022/10/12 14:08:13;;;;;;;5.85;3.22;;;;;;;15.06;59.82;101967.91;5244494;28;20053;-68
2022/10/12 14:10:44;;;;;;;11.48;4.28;;;;;;;15.05;59.73;101969.03;5241559;28;20400;-68
2022/10/12 14:13:31;;;;;;;7.47;2.92;;;;;;;15.11;60.10;101962.28;5245551;28;20021;-69
2022/10/12 14:16:04;;;;;;;8.55;3.15;;;;;;;15.13;59.24;101959.19;5240253;28;20036;-68
2022/10/12 14:18:44;;;;;;;6.55;3.28;;;;;;;15.28;60.32;101958.19;5250229;28;20033;-69
2022/10/12 14:21:28;;;;;;;8.35;3.45;;;;;;;15.32;61.35;101948.94;5248614;28;20400;-67
2022/10/12 14:24:07;;;;;;;8.60;3.47;;;;;;;15.37;59.60;101953.66;5244795;28;20029;-67
2022/10/12 14:26:41;;;;;;;7.35;3.15;;;;;;;15.38;59.23;101944.13;5234530;28;20097;-68
2022/10/12 14:29:44;;;;;;;7.20;3.35;;;;;;;15.31;59.47;101952.03;5237849;28;20033;-68
2022/10/12 14:32:21;;;;;;;7.72;3.92;;;;;;;15.23;59.49;101947.91;5255174;28;20083;-69
2022/10/12 14:35:20;;;;;;;7.68;3.95;;;;;;;15.27;61.46;101939.78;5231843;28;20029;-68
2022/10/12 14:37:54;;;;;;;6.57;3.63;;;;;;;15.24;62.16;101946.78;5239867;28;20045;-68
2022/10/12 14:40:46;;;;;;;5.70;3.17;;;;;;;15.13;61.34;101946.03;5237401;28;20448;-69
2022/10/12 14:43:23;;;;;;;7.95;4.15;;;;;;;15.12;60.98;101944.38;5247880;28;20072;-70
2022/10/12 14:45:54;;;;;;;9.65;4.22;;;;;;;15.00;61.19;101932.75;5241072;28;20534;-69
2022/10/12 14:48:25;;;;;;;9.40;4.47;;;;;;;15.09;61.13;101938.56;5235506;28;20154;-71
2022/10/12 14:50:57;;;;;;;6.00;3.30;;;;;;;15.20;62.13;101929.75;5248540;28;20029;-71
2022/10/12 14:53:28;;;;;;;9.55;4.25;;;;;;;15.20;61.10;101935.34;5251148;28;20030;-72
2022/10/12 14:55:59;;;;;;;7.72;3.47;;;;;;;15.19;61.71;101925.31;5246990;28;20032;-68
2022/10/12 14:58:31;;;;;;;8.20;4.40;;;;;;;15.21;62.37;101917.47;5237246;28;20025;-68
2022/10/12 15:01:02;;;;;;;9.25;3.95;;;;;;;15.20;62.27;101915.78;5238052;28;20045;-69
2022/10/12 15:03:33;;;;;;;9.07;4.55;;;;;;;15.11;61.60;101912.00;5239658;28;20091;-68
2022/10/12 15:06:05;;;;;;;12.48;4.85;;;;;;;15.08;62.45;101915.34;5241013;28;20094;-68
2022/10/12 15:08:36;;;;;;;15.73;5.28;;;;;;;15.09;62.47;101903.06;5240328;28;20025;-68
2022/10/12 15:11:12;;;;;;;10.48;4.20;;;;;;;15.18;64.83;101894.88;5241854;28;20176;-69
2022/10/12 15:13:43;;;;;;;8.05;4.00;;;;;;;15.04;62.81;101899.50;5245735;28;20496;-69
2022/10/12 15:16:26;;;;;;;15.05;8.77;;;;;;;15.13;64.23;101898.53;5228761;28;20033;-69
2022/10/12 15:18:58;;;;;;;7.60;5.57;;;;;;;15.03;63.53;101895.00;5238652;28;20030;-70
2022/10/12 15:21:29;;;;;;;14.23;5.47;;;;;;;15.04;63.83;101905.09;5237909;28;20498;-71
2022/10/12 15:24:01;;;;;;;9.68;7.07;;;;;;;14.98;63.63;101896.75;5241450;28;20029;-71
2022/10/12 15:26:32;;;;;;;8.95;5.13;;;;;;;15.09;65.45;101897.47;5241807;28;20048;-68
2022/10/12 15:29:03;;;;;;;9.45;4.38;;;;;;;15.00;63.83;101893.66;5239396;28;20026;-66
2022/10/12 15:31:37;;;;;;;7.63;4.63;;;;;;;14.89;63.75;101906.06;5240700;28;20044;-66
2022/10/12 15:34:12;;;;;;;9.23;4.40;;;;;;;14.88;64.11;101902.44;5232373;28;20084;-66
2022/10/12 15:36:43;;;;;;;8.45;4.45;;;;;;;14.87;64.57;101905.50;5233878;28;20044;-67
2022/10/12 15:39:17;;;;;;;9.25;4.35;;;;;;;14.81;64.12;101895.53;5234163;28;20029;-66
2022/10/12 15:41:49;;;;;;;8.38;4.68;;;;;;;14.78;64.62;101903.34;5229809;28;20025;-66
2022/10/12 15:44:23;;;;;;;7.00;4.32;;;;;;;14.77;65.56;101896.09;5247493;28;20060;-68
2022/10/12 15:46:54;;;;;;;10.68;4.78;;;;;;;14.77;65.45;101895.25;5229908;28;20380;-68
2022/10/12 15:49:26;;;;;;;8.73;4.82;;;;;;;14.77;65.49;101903.63;5232262;28;20030;-68
2022/10/12 15:51:57;;;;;;;6.53;4.28;;;;;;;14.74;65.59;101891.09;5242100;28;20033;-70
2022/10/12 15:54:28;;;;;;;9.18;4.65;;;;;;;14.78;66.48;101886.59;5252322;28;20039;-71
2022/10/12 15:57:00;;;;;;;7.20;4.55;;;;;;;14.74;66.26;101895.84;5236788;28;20484;-71
2022/10/12 15:59:31;;;;;;;10.25;5.18;;;;;;;14.76;66.51;101888.00;5248232;28;20056;-71
2022/10/12 16:02:02;;;;;;;10.88;4.88;;;;;;;14.73;66.55;101895.00;5239059;28;20064;-70
2022/10/12 16:04:33;;;;;;;8.07;5.03;;;;;;;14.70;66.92;101884.44;5249518;28;20013;-71
2022/10/12 16:07:05;;;;;;;8.00;4.63;;;;;;;14.87;68.38;101886.78;5252544;28;20034;-72
2022/10/12 16:09:36;;;;;;;13.88;5.57;;;;;;;14.81;67.67;101879.59;5245132;28;20025;-72
2022/10/12 16:12:07;;;;;;;11.85;5.65;;;;;;;14.76;67.10;101883.25;5241741;28;20511;-69
2022/10/12 16:14:39;;;;;;;14.15;8.20;;;;;;;14.74;67.26;101887.47;5234846;28;20038;-69
2022/10/12 16:17:10;;;;;;;24.40;7.95;;;;;;;14.69;67.53;101893.94;5240084;28;20037;-69
2022/10/12 16:19:42;;;;;;;27.40;18.83;;;;;;;14.64;68.22;101896.75;5239297;28;20072;-69
2022/10/12 16:22:16;;;;;;;11.30;5.93;;;;;;;14.58;68.53;101900.72;5242185;28;20029;-69
2022/10/12 16:24:47;;;;;;;10.45;5.50;;;;;;;14.53;68.56;101900.75;5244075;28;20037;-69
2022/10/12 16:27:29;;;;;;;10.82;5.75;;;;;;;14.61;68.46;101893.72;5245018;28;20029;-70
2022/10/12 16:30:00;;;;;;;10.13;5.28;;;;;;;14.52;68.64;101890.69;5252666;28;20033;-69
2022/10/12 16:32:32;;;;;;;11.68;5.80;;;;;;;14.44;68.95;101894.09;5244238;28;20044;-70
2022/10/12 16:35:04;;;;;;;11.57;5.88;;;;;;;14.47;69.79;101887.91;5243674;28;20022;-69
2022/10/12 16:37:36;;;;;;;10.23;5.32;;;;;;;14.43;69.91;101892.44;5239298;28;20029;-69
2022/10/12 16:40:09;;;;;;;13.40;5.32;;;;;;;14.33;70.34;101890.53;5240592;28;20032;-69
2022/10/12 16:42:40;;;;;;;9.80;5.53;;;;;;;14.36;70.76;101884.38;5243107;28;20029;-69
2022/10/12 16:45:11;;;;;;;12.50;5.82;;;;;;;14.32;70.66;101886.09;5246038;28;20025;-71
2022/10/12 16:47:43;;;;;;;9.35;6.00;;;;;;;14.30;70.73;101888.34;5233880;28;20082;-71
2022/10/12 16:50:15;;;;;;;17.52;7.20;;;;;;;14.27;71.62;101892.53;5252911;28;20030;-71
2022/10/12 16:52:46;;;;;;;15.05;6.10;;;;;;;14.22;71.48;101889.78;5246613;28;20049;-69
2022/10/12 16:55:18;;;;;;;8.40;5.50;;;;;;;14.19;71.70;101892.31;5240296;28;20026;-69
2022/10/12 16:57:50;;;;;;;9.93;5.90;;;;;;;14.12;71.83;101885.09;5240396;28;20024;-69
2022/10/12 17:00:24;;;;;;;9.18;5.72;;;;;;;14.12;72.22;101884.28;5244269;28;20042;-69
2022/10/12 17:02:56;;;;;;;13.52;7.72;;;;;;;14.09;72.08;101885.69;5237393;28;20486;-69
2022/10/12 17:05:27;;;;;;;11.40;7.70;;;;;;;14.06;72.66;101880.69;5239300;28;20022;-70
2022/10/12 17:07:58;;;;;;;13.25;6.22;;;;;;;14.03;72.53;101892.41;5244437;28;20116;-69
2022/10/12 17:10:30;;;;;;;13.55;6.53;;;;;;;13.85;73.09;101896.66;5255456;28;20029;-70
2022/10/12 17:13:04;;;;;;;15.23;7.20;;;;;;;13.78;74.04;101890.59;5242739;28;20025;-69
2022/10/12 17:15:39;;;;;;;18.70;10.57;;;;;;;13.82;74.14;101890.84;5252576;28;20021;-68
2022/10/12 17:18:10;;;;;;;13.88;7.18;;;;;;;13.84;73.55;101888.63;5237328;28;20091;-67
2022/10/12 17:20:41;;;;;;;10.63;6.57;;;;;;;13.81;73.67;101890.03;5242919;28;20033;-67
2022/10/12 17:23:13;;;;;;;17.05;6.68;;;;;;;13.78;74.05;101896.19;5238218;28;20033;-68
2022/10/12 17:25:44;;;;;;;14.98;7.72;;;;;;;13.67;74.23;101888.97;5240240;28;20461;-69
2022/10/12 17:28:15;;;;;;;10.02;6.05;;;;;;;13.72;74.58;101888.94;5245286;28;20037;-69
2022/10/12 17:30:47;;;;;;;11.57;6.18;;;;;;;13.71;74.05;101887.28;5245498;28;20021;-69
